sensor_id;sensor_type;location;lat;lon;timestamp;temperature;humidity
16513;DHT22;8369;48.030;11.598;2023-03-12T00:00:44;1.50;99.90
16513;DHT22;8369;48.030;11.598;2023-03-12T00:03:10;1.50;99.90
16513;DHT22;8369;48.030;11.598;2023-03-12T00:05:37;1.50;99.90
16513;DHT22;8369;48.030;11.598;2023-03-12T00:08:03;1.50;99.90
16513;DHT22;8369;48.030;11.598;2023-03-12T00:10:29;1.50;99.90
16513;DHT22;8369;48.030;11.598;2023-03-12T00:12:56;1.50;99.90
16513;DHT22;8369;48.030;11.598;2023-03-12T00:15:21;1.40;99.90
16513;DHT22;8369;48.030;11.598;2023-03-12T00:17:48;1.40;99.90
16513;DHT22;8369;48.030;11.598;2023-03-12T00:20:14;1.40;99.90
16513;DHT22;8369;48.030;11.598;2023-03-12T00:22:40;1.40;99.90
16513;DHT22;8369;48.030;11.598;2023-03-12T00:25:10;1.40;99.90
16513;DHT22;8369;48.030;11.598;2023-03-12T00:27:36;1.40;99.90
16513;DHT22;8369;48.030;11.598;2023-03-12T00:30:03;1.40;99.90
16513;DHT22;8369;48.030;11.598;2023-03-12T00:32:32;1.40;99.90
16513;DHT22;8369;48.030;11.598;2023-03-12T00:34:58;1.40;99.90
16513;DHT22;8369;48.030;11.598;2023-03-12T00:37:24;1.40;99.90
16513;DHT22;8369;48.030;11.598;2023-03-12T00:39:50;1.30;99.90
16513;DHT22;8369;48.030;11.598;2023-03-12T00:42:16;1.30;99.90
16513;DHT22;8369;48.030;11.598;2023-03-12T00:44:41;1.30;99.90
16513;DHT22;8369;48.030;11.598;2023-03-12T00:47:09;1.30;99.90
16513;DHT22;8369;48.030;11.598;2023-03-12T00:49:36;1.20;99.90
16513;DHT22;8369;48.030;11.598;2023-03-12T00:52:02;1.20;99.90
16513;DHT22;8369;48.030;11.598;2023-03-12T00:54:28;1.30;99.90
16513;DHT22;8369;48.030;11.598;2023-03-12T00:56:53;1.30;99.90
16513;DHT22;8369;48.030;11.598;2023-03-12T00:59:19;1.30;99.90
16513;DHT22;8369;48.030;11.598;2023-03-12T01:01:45;1.20;99.90
16513;DHT22;8369;48.030;11.598;2023-03-12T01:04:11;1.20;99.90
16513;DHT22;8369;48.030;11.598;2023-03-12T01:06:37;1.20;99.90
16513;DHT22;8369;48.030;11.598;2023-03-12T01:09:05;1.20;99.90
16513;DHT22;8369;48.030;11.598;2023-03-12T01:11:31;1.20;99.90
16513;DHT22;8369;48.030;11.598;2023-03-12T01:14:01;1.30;99.90
16513;DHT22;8369;48.030;11.598;2023-03-12T01:16:28;1.30;99.90
16513;DHT22;8369;48.030;11.598;2023-03-12T01:18:56;1.30;99.90
16513;DHT22;8369;48.030;11.598;2023-03-12T01:21:23;1.30;99.90
16513;DHT22;8369;48.030;11.598;2023-03-12T01:23:49;1.30;99.90
16513;DHT22;8369;48.030;11.598;2023-03-12T01:26:15;1.30;99.90
16513;DHT22;8369;48.030;11.598;2023-03-12T01:28:40;1.30;99.90
16513;DHT22;8369;48.030;11.598;2023-03-12T01:31:13;1.30;99.90
16513;DHT22;8369;48.030;11.598;2023-03-12T01:33:42;1.30;99.90
16513;DHT22;8369;48.030;11.598;2023-03-12T01:36:34;1.30;99.90
16513;DHT22;8369;48.030;11.598;2023-03-12T01:38:59;1.30;99.90
16513;DHT22;8369;48.030;11.598;2023-03-12T01:41:28;1.30;99.90
16513;DHT22;8369;48.030;11.598;2023-03-12T01:43:54;1.30;99.90
16513;DHT22;8369;48.030;11.598;2023-03-12T01:46:26;1.30;99.90
16513;DHT22;8369;48.030;11.598;2023-03-12T01:49:09;1.30;99.90
16513;DHT22;8369;48.030;11.598;2023-03-12T01:54:17;1.30;99.90
16513;DHT22;8369;48.030;11.598;2023-03-12T01:56:45;1.30;99.90
16513;DHT22;8369;48.030;11.598;2023-03-12T01:59:27;1.40;99.90
16513;DHT22;8369;48.030;11.598;2023-03-12T02:01:54;1.30;99.90
16513;DHT22;8369;48.030;11.598;2023-03-12T02:04:22;1.30;99.90
16513;DHT22;8369;48.030;11.598;2023-03-12T02:06:57;1.30;99.90
16513;DHT22;8369;48.030;11.598;2023-03-12T02:09:24;1.30;99.90
16513;DHT22;8369;48.030;11.598;2023-03-12T02:11:50;1.30;99.90
16513;DHT22;8369;48.030;11.598;2023-03-12T02:14:16;1.30;99.90
16513;DHT22;8369;48.030;11.598;2023-03-12T02:16:43;1.20;99.90
16513;DHT22;8369;48.030;11.598;2023-03-12T02:19:17;1.20;99.90
16513;DHT22;8369;48.030;11.598;2023-03-12T02:21:45;1.20;99.90
16513;DHT22;8369;48.030;11.598;2023-03-12T02:24:27;1.20;99.90
16513;DHT22;8369;48.030;11.598;2023-03-12T02:26:55;1.10;99.90
16513;DHT22;8369;48.030;11.598;2023-03-12T02:29:22;1.10;99.90
16513;DHT22;8369;48.030;11.598;2023-03-12T02:31:52;1.10;99.90
16513;DHT22;8369;48.030;11.598;2023-03-12T02:34:19;1.10;99.90
16513;DHT22;8369;48.030;11.598;2023-03-12T02:36:47;1.10;99.90
16513;DHT22;8369;48.030;11.598;2023-03-12T02:39:12;1.10;99.90
16513;DHT22;8369;48.030;11.598;2023-03-12T02:41:58;1.10;99.90
16513;DHT22;8369;48.030;11.598;2023-03-12T02:44:26;1.10;99.90
16513;DHT22;8369;48.030;11.598;2023-03-12T02:46:56;1.10;99.90
16513;DHT22;8369;48.030;11.598;2023-03-12T02:49:26;1.10;99.90
16513;DHT22;8369;48.030;11.598;2023-03-12T02:51:53;1.20;99.90
16513;DHT22;8369;48.030;11.598;2023-03-12T02:54:20;1.20;99.90
16513;DHT22;8369;48.030;11.598;2023-03-12T02:56:46;1.20;99.90
16513;DHT22;8369;48.030;11.598;2023-03-12T02:59:14;1.20;99.90
16513;DHT22;8369;48.030;11.598;2023-03-12T03:01:40;1.20;99.90
16513;DHT22;8369;48.030;11.598;2023-03-12T03:04:07;1.30;99.90
16513;DHT22;8369;48.030;11.598;2023-03-12T03:06:34;1.30;99.90
16513;DHT22;8369;48.030;11.598;2023-03-12T03:09:01;1.30;99.90
16513;DHT22;8369;48.030;11.598;2023-03-12T03:11:27;1.30;99.90
16513;DHT22;8369;48.030;11.598;2023-03-12T03:13:54;1.30;99.90
16513;DHT22;8369;48.030;11.598;2023-03-12T03:16:20;1.40;99.90
16513;DHT22;8369;48.030;11.598;2023-03-12T03:18:47;1.40;99.90
16513;DHT22;8369;48.030;11.598;2023-03-12T03:21:14;1.40;99.90
16513;DHT22;8369;48.030;11.598;2023-03-12T03:23:46;1.40;99.90
16513;DHT22;8369;48.030;11.598;2023-03-12T03:26:13;1.40;99.90
16513;DHT22;8369;48.030;11.598;2023-03-12T03:28:40;1.50;99.90
16513;DHT22;8369;48.030;11.598;2023-03-12T03:31:06;1.50;99.90
16513;DHT22;8369;48.030;11.598;2023-03-12T03:33:35;1.50;99.90
16513;DHT22;8369;48.030;11.598;2023-03-12T03:36:02;1.50;99.90
16513;DHT22;8369;48.030;11.598;2023-03-12T03:38:29;1.50;99.90
16513;DHT22;8369;48.030;11.598;2023-03-12T03:40:55;1.50;99.90
16513;DHT22;8369;48.030;11.598;2023-03-12T03:43:22;1.50;99.90
16513;DHT22;8369;48.030;11.598;2023-03-12T03:45:49;1.60;99.90
16513;DHT22;8369;48.030;11.598;2023-03-12T03:48:20;1.60;99.90
16513;DHT22;8369;48.030;11.598;2023-03-12T03:50:46;1.60;99.90
16513;DHT22;8369;48.030;11.598;2023-03-12T03:53:12;1.60;99.90
16513;DHT22;8369;48.030;11.598;2023-03-12T03:55:38;1.60;99.90
16513;DHT22;8369;48.030;11.598;2023-03-12T03:58:05;1.70;99.90
16513;DHT22;8369;48.030;11.598;2023-03-12T04:00:32;1.70;99.90
16513;DHT22;8369;48.030;11.598;2023-03-12T04:02:58;1.70;99.90
16513;DHT22;8369;48.030;11.598;2023-03-12T04:05:24;1.70;99.90
16513;DHT22;8369;48.030;11.598;2023-03-12T04:07:54;1.70;99.90
16513;DHT22;8369;48.030;11.598;2023-03-12T04:10:23;1.70;99.90
16513;DHT22;8369;48.030;11.598;2023-03-12T04:12:49;1.80;99.90
16513;DHT22;8369;48.030;11.598;2023-03-12T04:15:24;1.80;99.90
16513;DHT22;8369;48.030;11.598;2023-03-12T04:17:49;1.80;99.90
16513;DHT22;8369;48.030;11.598;2023-03-12T04:20:28;1.80;99.90
16513;DHT22;8369;48.030;11.598;2023-03-12T04:22:55;1.80;99.90
16513;DHT22;8369;48.030;11.598;2023-03-12T04:25:28;1.80;99.90
16513;DHT22;8369;48.030;11.598;2023-03-12T04:27:54;1.80;99.90
16513;DHT22;8369;48.030;11.598;2023-03-12T04:30:28;1.80;99.90
16513;DHT22;8369;48.030;11.598;2023-03-12T04:32:54;1.80;99.90
16513;DHT22;8369;48.030;11.598;2023-03-12T04:35:20;1.80;99.90
16513;DHT22;8369;48.030;11.598;2023-03-12T04:37:46;1.90;99.90
16513;DHT22;8369;48.030;11.598;2023-03-12T04:40:12;1.90;99.90
16513;DHT22;8369;48.030;11.598;2023-03-12T04:42:41;1.90;99.90
16513;DHT22;8369;48.030;11.598;2023-03-12T04:45:07;1.90;99.90
16513;DHT22;8369;48.030;11.598;2023-03-12T04:47:33;1.90;99.90
16513;DHT22;8369;48.030;11.598;2023-03-12T04:49:59;1.90;99.90
16513;DHT22;8369;48.030;11.598;2023-03-12T04:52:25;1.90;99.90
16513;DHT22;8369;48.030;11.598;2023-03-12T04:54:52;1.90;99.90
16513;DHT22;8369;48.030;11.598;2023-03-12T04:57:19;1.90;99.90
16513;DHT22;8369;48.030;11.598;2023-03-12T04:59:44;1.90;99.90
16513;DHT22;8369;48.030;11.598;2023-03-12T05:02:13;1.90;99.90
16513;DHT22;8369;48.030;11.598;2023-03-12T05:04:40;1.90;99.90
16513;DHT22;8369;48.030;11.598;2023-03-12T05:07:05;2.00;99.90
16513;DHT22;8369;48.030;11.598;2023-03-12T05:09:32;2.00;99.90
16513;DHT22;8369;48.030;11.598;2023-03-12T05:11:58;2.00;99.90
16513;DHT22;8369;48.030;11.598;2023-03-12T05:14:25;2.00;99.90
16513;DHT22;8369;48.030;11.598;2023-03-12T05:16:51;2.00;99.90
16513;DHT22;8369;48.030;11.598;2023-03-12T05:19:17;2.00;99.90
16513;DHT22;8369;48.030;11.598;2023-03-12T05:21:45;2.00;99.90
16513;DHT22;8369;48.030;11.598;2023-03-12T05:24:11;2.00;99.90
16513;DHT22;8369;48.030;11.598;2023-03-12T05:26:37;2.00;99.90
16513;DHT22;8369;48.030;11.598;2023-03-12T05:29:04;2.10;99.90
16513;DHT22;8369;48.030;11.598;2023-03-12T05:31:31;2.10;99.90
16513;DHT22;8369;48.030;11.598;2023-03-12T05:34:00;2.10;99.90
16513;DHT22;8369;48.030;11.598;2023-03-12T05:36:26;2.10;99.90
16513;DHT22;8369;48.030;11.598;2023-03-12T05:38:52;2.10;99.90
16513;DHT22;8369;48.030;11.598;2023-03-12T05:41:28;2.10;99.90
16513;DHT22;8369;48.030;11.598;2023-03-12T05:43:55;2.10;99.90
16513;DHT22;8369;48.030;11.598;2023-03-12T05:46:23;2.10;99.90
16513;DHT22;8369;48.030;11.598;2023-03-12T05:48:49;2.20;99.90
16513;DHT22;8369;48.030;11.598;2023-03-12T05:51:18;2.20;99.90
16513;DHT22;8369;48.030;11.598;2023-03-12T05:53:44;2.20;99.90
16513;DHT22;8369;48.030;11.598;2023-03-12T05:56:12;2.20;99.90
16513;DHT22;8369;48.030;11.598;2023-03-12T05:58:38;2.30;99.90
16513;DHT22;8369;48.030;11.598;2023-03-12T06:01:14;2.30;99.90
16513;DHT22;8369;48.030;11.598;2023-03-12T06:03:45;2.40;99.90
16513;DHT22;8369;48.030;11.598;2023-03-12T06:06:11;2.40;99.90
16513;DHT22;8369;48.030;11.598;2023-03-12T06:08:38;2.40;99.90
16513;DHT22;8369;48.030;11.598;2023-03-12T06:11:05;2.40;99.90
16513;DHT22;8369;48.030;11.598;2023-03-12T06:13:31;2.50;99.90
16513;DHT22;8369;48.030;11.598;2023-03-12T06:16:10;2.50;99.90
16513;DHT22;8369;48.030;11.598;2023-03-12T06:18:36;2.50;99.90
16513;DHT22;8369;48.030;11.598;2023-03-12T06:21:17;2.60;99.90
16513;DHT22;8369;48.030;11.598;2023-03-12T06:23:45;2.60;99.90
16513;DHT22;8369;48.030;11.598;2023-03-12T06:26:12;2.60;99.90
16513;DHT22;8369;48.030;11.598;2023-03-12T06:28:39;2.70;99.90
16513;DHT22;8369;48.030;11.598;2023-03-12T06:31:06;2.70;99.90
16513;DHT22;8369;48.030;11.598;2023-03-12T06:33:33;2.70;99.90
16513;DHT22;8369;48.030;11.598;2023-03-12T06:36:01;2.70;99.90
16513;DHT22;8369;48.030;11.598;2023-03-12T06:38:27;2.70;99.90
16513;DHT22;8369;48.030;11.598;2023-03-12T06:40:58;2.70;99.90
16513;DHT22;8369;48.030;11.598;2023-03-12T06:43:26;2.80;99.90
16513;DHT22;8369;48.030;11.598;2023-03-12T06:45:55;2.80;99.90
16513;DHT22;8369;48.030;11.598;2023-03-12T06:48:23;2.80;99.90
16513;DHT22;8369;48.030;11.598;2023-03-12T06:50:50;2.80;99.90
16513;DHT22;8369;48.030;11.598;2023-03-12T06:53:17;2.90;99.90
16513;DHT22;8369;48.030;11.598;2023-03-12T06:55:43;2.90;99.90
16513;DHT22;8369;48.030;11.598;2023-03-12T06:58:10;3.00;99.90
16513;DHT22;8369;48.030;11.598;2023-03-12T07:00:37;3.00;99.90
16513;DHT22;8369;48.030;11.598;2023-03-12T07:03:04;3.00;99.90
16513;DHT22;8369;48.030;11.598;2023-03-12T07:05:30;3.00;99.90
16513;DHT22;8369;48.030;11.598;2023-03-12T07:07:57;3.00;99.90
16513;DHT22;8369;48.030;11.598;2023-03-12T07:10:23;3.00;99.90
16513;DHT22;8369;48.030;11.598;2023-03-12T07:12:49;3.00;99.90
16513;DHT22;8369;48.030;11.598;2023-03-12T07:15:15;3.00;99.90
16513;DHT22;8369;48.030;11.598;2023-03-12T07:17:42;3.00;99.90
16513;DHT22;8369;48.030;11.598;2023-03-12T07:20:08;3.00;99.90
16513;DHT22;8369;48.030;11.598;2023-03-12T07:22:35;3.00;99.90
16513;DHT22;8369;48.030;11.598;2023-03-12T07:25:01;3.00;99.90
16513;DHT22;8369;48.030;11.598;2023-03-12T07:27:28;3.00;99.90
16513;DHT22;8369;48.030;11.598;2023-03-12T07:29:54;3.10;99.90
16513;DHT22;8369;48.030;11.598;2023-03-12T07:32:20;3.10;99.90
16513;DHT22;8369;48.030;11.598;2023-03-12T07:34:46;3.10;99.90
16513;DHT22;8369;48.030;11.598;2023-03-12T07:37:12;3.10;99.90
16513;DHT22;8369;48.030;11.598;2023-03-12T07:39:37;3.20;99.90
16513;DHT22;8369;48.030;11.598;2023-03-12T07:42:04;3.20;99.90
16513;DHT22;8369;48.030;11.598;2023-03-12T07:44:29;3.30;99.90
16513;DHT22;8369;48.030;11.598;2023-03-12T07:46:55;3.30;99.90
16513;DHT22;8369;48.030;11.598;2023-03-12T07:49:21;3.30;99.90
16513;DHT22;8369;48.030;11.598;2023-03-12T07:51:47;3.40;99.90
16513;DHT22;8369;48.030;11.598;2023-03-12T07:54:13;3.40;99.90
16513;DHT22;8369;48.030;11.598;2023-03-12T07:56:39;3.40;99.90
16513;DHT22;8369;48.030;11.598;2023-03-12T07:59:05;3.40;99.90
16513;DHT22;8369;48.030;11.598;2023-03-12T08:01:33;3.50;99.90
16513;DHT22;8369;48.030;11.598;2023-03-12T08:03:59;3.50;99.90
16513;DHT22;8369;48.030;11.598;2023-03-12T08:06:27;3.50;99.90
16513;DHT22;8369;48.030;11.598;2023-03-12T08:08:53;3.60;99.90
16513;DHT22;8369;48.030;11.598;2023-03-12T08:11:20;3.60;99.90
16513;DHT22;8369;48.030;11.598;2023-03-12T08:13:46;3.60;99.90
16513;DHT22;8369;48.030;11.598;2023-03-12T08:16:12;3.60;99.90
16513;DHT22;8369;48.030;11.598;2023-03-12T08:18:39;3.60;99.90
16513;DHT22;8369;48.030;11.598;2023-03-12T08:21:10;3.60;99.90
16513;DHT22;8369;48.030;11.598;2023-03-12T08:23:36;3.60;99.90
16513;DHT22;8369;48.030;11.598;2023-03-12T08:26:02;3.70;99.90
16513;DHT22;8369;48.030;11.598;2023-03-12T08:28:28;3.70;99.90
16513;DHT22;8369;48.030;11.598;2023-03-12T08:30:58;3.70;99.90
16513;DHT22;8369;48.030;11.598;2023-03-12T08:33:24;3.70;99.90
16513;DHT22;8369;48.030;11.598;2023-03-12T08:35:51;3.70;99.90
16513;DHT22;8369;48.030;11.598;2023-03-12T08:38:17;3.70;99.90
16513;DHT22;8369;48.030;11.598;2023-03-12T08:40:45;3.70;99.90
16513;DHT22;8369;48.030;11.598;2023-03-12T08:43:14;3.70;99.90
16513;DHT22;8369;48.030;11.598;2023-03-12T08:45:40;3.70;99.90
16513;DHT22;8369;48.030;11.598;2023-03-12T08:48:07;3.70;99.90
16513;DHT22;8369;48.030;11.598;2023-03-12T08:50:33;3.70;99.90
16513;DHT22;8369;48.030;11.598;2023-03-12T08:52:59;3.70;99.90
16513;DHT22;8369;48.030;11.598;2023-03-12T08:55:26;3.70;99.90
16513;DHT22;8369;48.030;11.598;2023-03-12T08:57:55;3.70;99.90
16513;DHT22;8369;48.030;11.598;2023-03-12T09:00:21;3.80;99.90
16513;DHT22;8369;48.030;11.598;2023-03-12T09:02:47;3.80;99.90
16513;DHT22;8369;48.030;11.598;2023-03-12T09:05:16;3.80;99.90
16513;DHT22;8369;48.030;11.598;2023-03-12T09:07:43;3.80;99.90
16513;DHT22;8369;48.030;11.598;2023-03-12T09:10:10;3.90;99.90
16513;DHT22;8369;48.030;11.598;2023-03-12T09:12:36;3.90;99.90
16513;DHT22;8369;48.030;11.598;2023-03-12T09:15:02;4.00;99.90
16513;DHT22;8369;48.030;11.598;2023-03-12T09:17:28;4.00;99.90
16513;DHT22;8369;48.030;11.598;2023-03-12T09:19:57;4.00;99.90
16513;DHT22;8369;48.030;11.598;2023-03-12T09:22:28;4.00;99.90
16513;DHT22;8369;48.030;11.598;2023-03-12T09:24:54;4.00;99.90
16513;DHT22;8369;48.030;11.598;2023-03-12T09:27:21;4.00;99.90
16513;DHT22;8369;48.030;11.598;2023-03-12T09:29:49;4.00;99.90
16513;DHT22;8369;48.030;11.598;2023-03-12T09:32:16;4.00;99.90
16513;DHT22;8369;48.030;11.598;2023-03-12T09:34:42;4.00;99.90
16513;DHT22;8369;48.030;11.598;2023-03-12T09:37:08;4.00;99.90
16513;DHT22;8369;48.030;11.598;2023-03-12T09:39:34;4.00;99.90
16513;DHT22;8369;48.030;11.598;2023-03-12T09:42:02;4.00;99.90
16513;DHT22;8369;48.030;11.598;2023-03-12T09:44:41;4.00;99.90
16513;DHT22;8369;48.030;11.598;2023-03-12T09:47:28;3.90;99.90
16513;DHT22;8369;48.030;11.598;2023-03-12T09:50:05;3.90;99.90
16513;DHT22;8369;48.030;11.598;2023-03-12T09:55:37;3.80;99.90
16513;DHT22;8369;48.030;11.598;2023-03-12T09:58:08;3.80;99.90
16513;DHT22;8369;48.030;11.598;2023-03-12T10:00:35;3.70;99.90
16513;DHT22;8369;48.030;11.598;2023-03-12T10:08:16;3.60;99.90
16513;DHT22;8369;48.030;11.598;2023-03-12T10:13:32;3.60;99.90
16513;DHT22;8369;48.030;11.598;2023-03-12T10:18:40;3.60;99.90
16513;DHT22;8369;48.030;11.598;2023-03-12T10:25:06;3.60;99.90
16513;DHT22;8369;48.030;11.598;2023-03-12T10:27:34;3.70;99.90
16513;DHT22;8369;48.030;11.598;2023-03-12T10:30:12;3.80;99.90
16513;DHT22;8369;48.030;11.598;2023-03-12T10:32:49;3.80;99.90
16513;DHT22;8369;48.030;11.598;2023-03-12T10:35:19;3.90;99.90
16513;DHT22;8369;48.030;11.598;2023-03-12T10:37:59;3.90;99.90
16513;DHT22;8369;48.030;11.598;2023-03-12T10:40:28;3.90;99.90
16513;DHT22;8369;48.030;11.598;2023-03-12T10:42:55;3.90;99.90
16513;DHT22;8369;48.030;11.598;2023-03-12T10:47:51;4.00;99.90
16513;DHT22;8369;48.030;11.598;2023-03-12T10:50:27;4.10;99.90
16513;DHT22;8369;48.030;11.598;2023-03-12T10:53:29;4.10;99.90
16513;DHT22;8369;48.030;11.598;2023-03-12T10:56:13;4.20;99.90
16513;DHT22;8369;48.030;11.598;2023-03-12T10:58:47;4.30;99.90
16513;DHT22;8369;48.030;11.598;2023-03-12T11:03:42;4.30;99.90
16513;DHT22;8369;48.030;11.598;2023-03-12T11:06:09;4.40;99.90
16513;DHT22;8369;48.030;11.598;2023-03-12T11:09:05;4.40;99.90
16513;DHT22;8369;48.030;11.598;2023-03-12T11:11:36;4.40;99.90
16513;DHT22;8369;48.030;11.598;2023-03-12T11:14:26;4.40;99.90
16513;DHT22;8369;48.030;11.598;2023-03-12T11:16:54;4.50;99.90
16513;DHT22;8369;48.030;11.598;2023-03-12T11:19:33;4.50;99.90
16513;DHT22;8369;48.030;11.598;2023-03-12T11:22:02;4.50;99.90
16513;DHT22;8369;48.030;11.598;2023-03-12T11:24:32;4.60;99.90
16513;DHT22;8369;48.030;11.598;2023-03-12T11:27:05;4.60;99.90
16513;DHT22;8369;48.030;11.598;2023-03-12T11:29:34;4.70;99.90
16513;DHT22;8369;48.030;11.598;2023-03-12T11:34:44;4.80;99.90
16513;DHT22;8369;48.030;11.598;2023-03-12T11:43:27;5.10;99.90
16513;DHT22;8369;48.030;11.598;2023-03-12T11:49:21;5.40;99.90
16513;DHT22;8369;48.030;11.598;2023-03-12T11:57:26;5.60;99.90
16513;DHT22;8369;48.030;11.598;2023-03-12T12:00:03;5.60;99.90
16513;DHT22;8369;48.030;11.598;2023-03-12T12:08:47;5.90;99.90
16513;DHT22;8369;48.030;11.598;2023-03-12T12:19:35;6.30;99.90
16513;DHT22;8369;48.030;11.598;2023-03-12T12:22:19;6.30;99.90
16513;DHT22;8369;48.030;11.598;2023-03-12T12:34:11;6.60;99.90
16513;DHT22;8369;48.030;11.598;2023-03-12T12:36:47;6.60;99.90
16513;DHT22;8369;48.030;11.598;2023-03-12T12:39:38;6.60;99.90
16513;DHT22;8369;48.030;11.598;2023-03-12T12:42:09;6.60;99.90
16513;DHT22;8369;48.030;11.598;2023-03-12T12:44:46;6.60;99.90
16513;DHT22;8369;48.030;11.598;2023-03-12T12:47:19;6.60;99.90
16513;DHT22;8369;48.030;11.598;2023-03-12T12:49:53;6.60;99.90
16513;DHT22;8369;48.030;11.598;2023-03-12T12:52:22;6.50;99.90
16513;DHT22;8369;48.030;11.598;2023-03-12T12:57:41;6.60;99.90
16513;DHT22;8369;48.030;11.598;2023-03-12T13:00:22;6.60;99.90
16513;DHT22;8369;48.030;11.598;2023-03-12T13:02:55;6.70;99.90
16513;DHT22;8369;48.030;11.598;2023-03-12T13:06:01;6.70;99.90
16513;DHT22;8369;48.030;11.598;2023-03-12T13:13:50;6.90;99.90
16513;DHT22;8369;48.030;11.598;2023-03-12T13:36:45;7.00;99.90
16513;DHT22;8369;48.030;11.598;2023-03-12T13:39:28;7.10;99.90
16513;DHT22;8369;48.030;11.598;2023-03-12T13:41:55;7.10;99.90
16513;DHT22;8369;48.030;11.598;2023-03-12T13:49:42;7.20;99.90
16513;DHT22;8369;48.030;11.598;2023-03-12T13:54:49;7.30;99.90
16513;DHT22;8369;48.030;11.598;2023-03-12T14:00:03;7.40;99.90
16513;DHT22;8369;48.030;11.598;2023-03-12T14:02:36;7.50;99.90
16513;DHT22;8369;48.030;11.598;2023-03-12T14:05:09;7.60;99.90
16513;DHT22;8369;48.030;11.598;2023-03-12T14:14:17;7.60;99.90
16513;DHT22;8369;48.030;11.598;2023-03-12T14:16:55;7.60;99.90
16513;DHT22;8369;48.030;11.598;2023-03-12T14:19:24;7.60;99.90
16513;DHT22;8369;48.030;11.598;2023-03-12T14:21:52;7.60;99.90
16513;DHT22;8369;48.030;11.598;2023-03-12T14:24:36;7.70;99.90
16513;DHT22;8369;48.030;11.598;2023-03-12T14:27:05;7.70;99.90
16513;DHT22;8369;48.030;11.598;2023-03-12T14:32:17;7.90;99.90
16513;DHT22;8369;48.030;11.598;2023-03-12T14:34:56;7.90;99.90
16513;DHT22;8369;48.030;11.598;2023-03-12T14:37:35;8.00;99.90
16513;DHT22;8369;48.030;11.598;2023-03-12T14:40:20;8.00;99.90
16513;DHT22;8369;48.030;11.598;2023-03-12T14:42:47;8.00;99.90
16513;DHT22;8369;48.030;11.598;2023-03-12T14:45:19;8.00;99.90
16513;DHT22;8369;48.030;11.598;2023-03-12T14:47:47;8.10;99.90
16513;DHT22;8369;48.030;11.598;2023-03-12T14:50:21;8.00;99.90
16513;DHT22;8369;48.030;11.598;2023-03-12T14:52:48;8.10;99.90
16513;DHT22;8369;48.030;11.598;2023-03-12T14:55:19;8.10;99.90
16513;DHT22;8369;48.030;11.598;2023-03-12T14:57:46;8.10;99.90
16513;DHT22;8369;48.030;11.598;2023-03-12T15:00:26;8.10;99.90
16513;DHT22;8369;48.030;11.598;2023-03-12T15:02:55;8.10;99.90
16513;DHT22;8369;48.030;11.598;2023-03-12T15:05:23;8.10;99.90
16513;DHT22;8369;48.030;11.598;2023-03-12T15:07:51;8.10;99.90
16513;DHT22;8369;48.030;11.598;2023-03-12T15:10:26;8.10;99.90
16513;DHT22;8369;48.030;11.598;2023-03-12T15:12:56;8.00;99.90
16513;DHT22;8369;48.030;11.598;2023-03-12T15:15:41;8.10;99.90
16513;DHT22;8369;48.030;11.598;2023-03-12T15:18:16;8.10;99.90
16513;DHT22;8369;48.030;11.598;2023-03-12T15:20:44;8.10;99.90
16513;DHT22;8369;48.030;11.598;2023-03-12T15:23:12;8.10;99.90
16513;DHT22;8369;48.030;11.598;2023-03-12T15:25:41;8.10;99.90
16513;DHT22;8369;48.030;11.598;2023-03-12T15:30:44;8.00;99.90
16513;DHT22;8369;48.030;11.598;2023-03-12T15:36:02;8.00;99.90
16513;DHT22;8369;48.030;11.598;2023-03-12T15:38:32;8.00;99.90
16513;DHT22;8369;48.030;11.598;2023-03-12T15:41:06;8.00;99.90
16513;DHT22;8369;48.030;11.598;2023-03-12T15:43:34;8.00;99.90
16513;DHT22;8369;48.030;11.598;2023-03-12T15:46:04;7.90;99.90
16513;DHT22;8369;48.030;11.598;2023-03-12T15:48:36;8.00;99.90
16513;DHT22;8369;48.030;11.598;2023-03-12T15:51:13;8.00;99.90
16513;DHT22;8369;48.030;11.598;2023-03-12T15:53:41;8.00;99.90
16513;DHT22;8369;48.030;11.598;2023-03-12T15:58:39;8.00;99.90
16513;DHT22;8369;48.030;11.598;2023-03-12T16:01:09;8.00;99.90
16513;DHT22;8369;48.030;11.598;2023-03-12T16:03:36;7.90;99.90
16513;DHT22;8369;48.030;11.598;2023-03-12T16:06:19;8.00;99.90
16513;DHT22;8369;48.030;11.598;2023-03-12T16:11:36;8.00;99.90
16513;DHT22;8369;48.030;11.598;2023-03-12T16:16:33;7.90;99.90
16513;DHT22;8369;48.030;11.598;2023-03-12T16:19:01;7.90;99.90
16513;DHT22;8369;48.030;11.598;2023-03-12T16:21:27;7.90;99.90
16513;DHT22;8369;48.030;11.598;2023-03-12T16:23:55;7.90;99.90
16513;DHT22;8369;48.030;11.598;2023-03-12T16:26:20;7.90;99.90
16513;DHT22;8369;48.030;11.598;2023-03-12T16:28:47;7.90;99.90
16513;DHT22;8369;48.030;11.598;2023-03-12T16:31:14;7.80;99.90
16513;DHT22;8369;48.030;11.598;2023-03-12T16:33:41;7.80;99.90
16513;DHT22;8369;48.030;11.598;2023-03-12T16:36:15;7.80;99.90
16513;DHT22;8369;48.030;11.598;2023-03-12T16:38:42;7.90;99.90
16513;DHT22;8369;48.030;11.598;2023-03-12T16:41:13;7.80;99.90
16513;DHT22;8369;48.030;11.598;2023-03-12T16:43:41;7.80;99.90
16513;DHT22;8369;48.030;11.598;2023-03-12T16:46:09;7.80;99.90
16513;DHT22;8369;48.030;11.598;2023-03-12T16:48:36;7.80;99.90
16513;DHT22;8369;48.030;11.598;2023-03-12T16:51:02;7.80;99.90
16513;DHT22;8369;48.030;11.598;2023-03-12T16:53:29;7.80;99.90
16513;DHT22;8369;48.030;11.598;2023-03-12T16:55:59;7.80;99.90
16513;DHT22;8369;48.030;11.598;2023-03-12T16:58:27;7.70;99.90
16513;DHT22;8369;48.030;11.598;2023-03-12T17:00:54;7.70;99.90
16513;DHT22;8369;48.030;11.598;2023-03-12T17:03:29;7.70;99.90
16513;DHT22;8369;48.030;11.598;2023-03-12T17:05:56;7.70;99.90
16513;DHT22;8369;48.030;11.598;2023-03-12T17:08:22;7.70;99.90
16513;DHT22;8369;48.030;11.598;2023-03-12T17:10:48;7.60;99.90
16513;DHT22;8369;48.030;11.598;2023-03-12T17:13:27;7.60;99.90
16513;DHT22;8369;48.030;11.598;2023-03-12T17:16:12;7.50;99.90
16513;DHT22;8369;48.030;11.598;2023-03-12T17:18:39;7.50;99.90
16513;DHT22;8369;48.030;11.598;2023-03-12T17:21:06;7.50;99.90
16513;DHT22;8369;48.030;11.598;2023-03-12T17:23:32;7.50;99.90
16513;DHT22;8369;48.030;11.598;2023-03-12T17:25:59;7.40;99.90
16513;DHT22;8369;48.030;11.598;2023-03-12T17:28:37;7.30;99.90
16513;DHT22;8369;48.030;11.598;2023-03-12T17:31:04;7.30;99.90
16513;DHT22;8369;48.030;11.598;2023-03-12T17:33:31;7.20;99.90
16513;DHT22;8369;48.030;11.598;2023-03-12T17:35:59;7.20;99.90
16513;DHT22;8369;48.030;11.598;2023-03-12T17:38:26;7.20;99.90
16513;DHT22;8369;48.030;11.598;2023-03-12T17:40:52;7.20;99.90
16513;DHT22;8369;48.030;11.598;2023-03-12T17:43:19;7.10;99.90
16513;DHT22;8369;48.030;11.598;2023-03-12T17:45:46;7.10;99.90
16513;DHT22;8369;48.030;11.598;2023-03-12T17:48:14;7.10;99.90
16513;DHT22;8369;48.030;11.598;2023-03-12T17:50:40;7.10;99.90
16513;DHT22;8369;48.030;11.598;2023-03-12T17:53:06;7.10;99.90
16513;DHT22;8369;48.030;11.598;2023-03-12T17:55:33;7.00;99.90
16513;DHT22;8369;48.030;11.598;2023-03-12T17:57:59;7.00;99.90
16513;DHT22;8369;48.030;11.598;2023-03-12T18:00:26;7.00;99.90
16513;DHT22;8369;48.030;11.598;2023-03-12T18:02:52;7.00;99.90
16513;DHT22;8369;48.030;11.598;2023-03-12T18:05:19;7.00;99.90